createdAt,value
2018-06-25T00:00:18.313Z,17.20
2018-06-25T00:05:12.920Z,17.10
2018-06-25T00:10:07.464Z,17.00
2018-06-25T00:15:01.947Z,16.90
2018-06-25T00:19:56.460Z,16.90
2018-06-25T00:24:50.885Z,16.90
2018-06-25T00:29:45.389Z,16.90
2018-06-25T00:34:39.925Z,16.90
2018-06-25T00:39:34.575Z,17.00
2018-06-25T00:44:29.085Z,17.20
2018-06-25T00:49:23.579Z,17.10
2018-06-25T00:54:18.110Z,17.10
2018-06-25T00:59:29.314Z,17.00
2018-06-25T01:04:23.828Z,17.00
2018-06-25T01:09:18.329Z,17.00
2018-06-25T01:14:12.833Z,17.00
2018-06-25T01:19:07.454Z,16.90
2018-06-25T01:24:02.389Z,16.90
2018-06-25T01:28:56.850Z,16.70
2018-06-25T01:33:51.268Z,16.60
2018-06-25T01:38:45.736Z,16.70
2018-06-25T01:43:40.297Z,16.70
2018-06-25T01:48:34.858Z,16.80
2018-06-25T01:53:29.274Z,16.70
2018-06-25T01:58:23.760Z,16.70
2018-06-25T02:03:18.212Z,16.70
2018-06-25T02:08:12.784Z,16.70
2018-06-25T02:13:08.100Z,16.50
2018-06-25T02:18:02.616Z,16.50
2018-06-25T02:22:57.115Z,16.50
2018-06-25T02:27:51.625Z,16.40
2018-06-25T02:32:46.105Z,16.40
2018-06-25T02:37:40.632Z,16.20
2018-06-25T02:42:35.145Z,16.20
2018-06-25T02:47:29.708Z,16.20
2018-06-25T02:52:24.444Z,16.20
2018-06-25T02:57:18.950Z,16.10
2018-06-25T03:02:13.440Z,16.10
2018-06-25T03:07:07.937Z,16.10
2018-06-25T03:12:02.527Z,16.20
2018-06-25T03:17:09.174Z,16.10
2018-06-25T03:22:03.939Z,15.90
2018-06-25T03:26:58.529Z,16.00
2018-06-25T03:31:53.013Z,15.90
2018-06-25T03:36:47.599Z,15.80
2018-06-25T03:41:42.180Z,15.90
2018-06-25T03:46:36.689Z,16.00
2018-06-25T03:51:31.224Z,15.70
2018-06-25T03:56:26.398Z,15.80
2018-06-25T04:02:50.370Z,15.80
2018-06-25T04:07:44.879Z,15.60
2018-06-25T04:12:39.450Z,15.60
2018-06-25T04:17:33.924Z,15.50
2018-06-25T04:27:22.783Z,15.60
2018-06-25T04:32:17.248Z,15.70
2018-06-25T04:42:06.079Z,15.70
2018-06-25T04:47:00.584Z,15.80
2018-06-25T04:51:55.072Z,15.80
2018-06-25T04:56:49.568Z,15.70
2018-06-25T05:01:44.041Z,15.70
2018-06-25T05:06:38.620Z,15.50
2018-06-25T05:11:33.137Z,15.60
2018-06-25T05:16:27.688Z,15.70
2018-06-25T05:21:22.213Z,15.80
2018-06-25T05:26:16.885Z,16.00
2018-06-25T05:31:11.441Z,16.50
2018-06-25T05:36:06.142Z,16.50
2018-06-25T05:41:00.580Z,16.30
2018-06-25T05:45:55.060Z,16.50
2018-06-25T05:50:49.464Z,17.30
2018-06-25T05:55:44.281Z,16.70
2018-06-25T06:00:38.708Z,16.70
2018-06-25T06:05:33.405Z,16.50
2018-06-25T06:10:27.976Z,15.60
2018-06-25T06:15:22.533Z,15.00
2018-06-25T06:20:17.031Z,14.60
2018-06-25T06:25:11.310Z,14.50
2018-06-25T06:30:06.003Z,14.50
2018-06-25T06:35:00.513Z,14.60
2018-06-25T06:39:55.116Z,14.90
2018-06-25T06:44:49.591Z,15.00
2018-06-25T06:49:44.232Z,15.20
2018-06-25T06:54:42.651Z,15.50
2018-06-25T06:59:40.285Z,15.70
2018-06-25T07:04:37.023Z,16.10
2018-06-25T07:09:31.540Z,16.30
2018-06-25T07:14:26.078Z,16.70
2018-06-25T07:20:52.349Z,16.70
2018-06-25T07:25:47.795Z,16.90
2018-06-25T07:30:42.421Z,17.40
2018-06-25T07:35:37.032Z,17.90
2018-06-25T07:40:32.174Z,17.50
2018-06-25T07:45:27.054Z,17.60
2018-06-25T07:50:22.352Z,17.90
2018-06-25T07:55:17.888Z,18.80
2018-06-25T08:00:12.686Z,19.10
2018-06-25T08:05:07.330Z,20.00
2018-06-25T08:10:12.122Z,21.20
2018-06-25T08:15:06.920Z,21.50
2018-06-25T08:20:01.741Z,20.70
2018-06-25T08:24:58.040Z,20.70
2018-06-25T08:29:52.895Z,20.70
2018-06-25T08:34:47.581Z,20.60
2018-06-25T08:39:42.158Z,20.30
2018-06-25T08:44:36.666Z,19.30
2018-06-25T08:49:31.565Z,18.70
2018-06-25T08:54:26.965Z,17.70
2018-06-25T08:59:21.730Z,17.80
2018-06-25T09:04:16.327Z,17.60
2018-06-25T09:09:13.265Z,18.00
2018-06-25T09:14:08.626Z,18.10
2018-06-25T09:19:03.730Z,19.00
2018-06-25T09:23:59.269Z,19.30
2018-06-25T09:28:55.494Z,19.40
2018-06-25T09:33:50.202Z,19.20
2018-06-25T09:38:44.856Z,19.60
2018-06-25T09:43:39.534Z,19.70
2018-06-25T09:48:34.471Z,20.10
2018-06-25T09:53:29.270Z,20.40
2018-06-25T09:58:23.856Z,20.50
2018-06-25T10:03:18.455Z,20.20
2018-06-25T10:13:07.178Z,19.50
2018-06-25T10:18:01.751Z,19.50
2018-06-25T10:22:56.354Z,20.40
2018-06-25T10:27:51.163Z,20.50
2018-06-25T10:32:46.380Z,21.50
2018-06-25T10:37:43.497Z,21.90
2018-06-25T10:42:38.299Z,21.10
2018-06-25T10:47:32.732Z,19.70
2018-06-25T10:52:27.288Z,19.80
2018-06-25T10:57:22.035Z,20.10
2018-06-25T11:02:16.850Z,20.20
2018-06-25T11:07:13.311Z,20.40
2018-06-25T11:17:02.754Z,20.30
2018-06-25T11:22:01.604Z,20.50
2018-06-25T11:31:55.313Z,21.10
2018-06-25T11:36:50.835Z,20.80
2018-06-25T11:41:45.428Z,20.90
2018-06-25T11:46:41.803Z,20.90
2018-06-25T11:51:36.539Z,20.60
2018-06-25T11:56:31.102Z,21.40
2018-06-25T12:01:25.684Z,21.50
2018-06-25T12:06:20.297Z,21.60
2018-06-25T12:11:14.877Z,21.70
2018-06-25T12:16:09.605Z,22.30
2018-06-25T12:21:04.385Z,22.30
2018-06-25T12:25:59.214Z,21.80
2018-06-25T12:30:54.321Z,21.30
2018-06-25T12:35:48.844Z,21.50
2018-06-25T12:40:43.994Z,21.90
2018-06-25T12:45:41.070Z,21.90
2018-06-25T12:50:35.869Z,22.60
2018-06-25T12:55:30.765Z,22.40
2018-06-25T13:00:27.576Z,22.70
2018-06-25T13:05:31.779Z,23.40
2018-06-25T13:10:27.013Z,23.50
2018-06-25T13:15:21.763Z,23.80
2018-06-25T13:20:19.634Z,24.00
2018-06-25T13:25:14.509Z,24.20
2018-06-25T13:30:10.618Z,23.90
2018-06-25T13:35:23.964Z,24.60
2018-06-25T13:40:18.674Z,24.70
2018-06-25T13:45:13.540Z,23.60
2018-06-25T13:50:08.578Z,23.30
2018-06-25T13:55:07.244Z,23.30
2018-06-25T14:00:02.429Z,23.40
2018-06-25T14:04:57.057Z,23.80
2018-06-25T14:09:51.738Z,23.90
2018-06-25T14:14:46.390Z,24.60
2018-06-25T14:19:41.133Z,24.90
2018-06-25T14:24:43.940Z,24.40
2018-06-25T14:29:39.031Z,22.90
2018-06-25T14:34:33.687Z,22.40
2018-06-25T14:39:28.514Z,22.60
2018-06-25T14:44:23.137Z,23.10
2018-06-25T14:49:18.268Z,23.30
2018-06-25T14:54:35.757Z,22.40
2018-06-25T14:59:30.352Z,22.10
2018-06-25T15:04:25.221Z,22.20
2018-06-25T15:09:19.852Z,22.30
2018-06-25T15:14:14.488Z,22.60
2018-06-25T15:19:09.329Z,22.50
2018-06-25T15:24:04.574Z,22.50
2018-06-25T15:28:59.409Z,23.20
2018-06-25T15:33:54.135Z,23.40
2018-06-25T15:38:48.787Z,23.30
2018-06-25T15:43:43.471Z,23.40
2018-06-25T15:53:32.480Z,23.70
2018-06-25T15:58:27.094Z,23.10
2018-06-25T16:03:21.669Z,23.00
2018-06-25T16:08:16.262Z,22.70
2018-06-25T16:13:10.966Z,22.90
2018-06-25T16:18:05.624Z,22.80
2018-06-25T16:23:00.283Z,23.10
2018-06-25T16:27:54.903Z,23.50
2018-06-25T16:32:49.457Z,22.80
2018-06-25T16:37:45.233Z,22.50
2018-06-25T16:42:40.157Z,22.70
2018-06-25T16:47:34.955Z,22.80
2018-06-25T16:52:29.707Z,22.80
2018-06-25T16:57:24.242Z,22.70
2018-06-25T17:02:18.837Z,23.00
2018-06-25T17:07:13.423Z,22.70
2018-06-25T17:12:08.061Z,22.70
2018-06-25T17:17:02.659Z,22.70
2018-06-25T17:21:57.294Z,22.60
2018-06-25T17:26:51.913Z,22.10
2018-06-25T17:31:46.476Z,22.30
2018-06-25T17:36:41.018Z,22.20
2018-06-25T17:41:35.601Z,22.50
2018-06-25T17:46:30.159Z,22.50
2018-06-25T17:51:24.765Z,22.50
2018-06-25T17:56:19.347Z,22.00
2018-06-25T18:01:14.027Z,22.20
2018-06-25T18:06:08.534Z,22.20
2018-06-25T18:12:32.622Z,21.90
2018-06-25T18:17:27.285Z,21.90
2018-06-25T18:22:21.877Z,21.60
2018-06-25T18:32:10.669Z,21.30
2018-06-25T18:37:05.251Z,21.40
2018-06-25T18:41:59.837Z,21.10
2018-06-25T18:46:54.418Z,21.00
2018-06-25T18:51:48.964Z,20.90
2018-06-25T18:56:43.587Z,20.80
2018-06-25T19:01:38.207Z,20.70
2018-06-25T19:06:32.815Z,20.80
2018-06-25T19:11:27.452Z,20.80
2018-06-25T19:16:22.118Z,21.30
2018-06-25T19:26:42.809Z,20.80
2018-06-25T19:31:37.410Z,20.30
2018-06-25T19:36:32.057Z,19.90
2018-06-25T19:41:26.637Z,19.80
2018-06-25T19:46:21.310Z,19.60
2018-06-25T19:51:15.998Z,19.50
2018-06-25T19:56:10.551Z,19.40
2018-06-25T20:01:05.164Z,19.50
2018-06-25T20:05:59.775Z,19.50
2018-06-25T20:10:54.278Z,19.30
2018-06-25T20:15:48.945Z,19.20
2018-06-25T20:20:43.531Z,18.90
2018-06-25T20:25:38.105Z,18.90
2018-06-25T20:35:26.970Z,18.80
2018-06-25T20:40:21.545Z,18.70
2018-06-25T20:45:16.125Z,18.70
2018-06-25T20:50:10.691Z,18.60
2018-06-25T20:55:05.649Z,18.50
2018-06-25T21:00:00.333Z,18.40
2018-06-25T21:04:55.023Z,18.40
2018-06-25T21:09:49.562Z,18.40
2018-06-25T21:14:44.096Z,18.20
2018-06-25T21:19:39.209Z,18.00
2018-06-25T21:24:33.734Z,18.10
2018-06-25T21:29:28.336Z,18.10
2018-06-25T21:34:22.905Z,18.10
2018-06-25T21:39:17.432Z,18.20
2018-06-25T21:44:12.021Z,18.10
2018-06-25T21:50:36.121Z,18.00
2018-06-25T21:55:30.672Z,17.90
2018-06-25T22:00:31.606Z,17.60
2018-06-25T22:05:26.116Z,17.50
2018-06-25T22:15:14.991Z,17.80
2018-06-25T22:20:09.652Z,17.50
2018-06-25T22:25:04.273Z,17.60
2018-06-25T22:29:58.925Z,17.70
2018-06-25T22:34:53.448Z,17.60
2018-06-25T22:39:48.048Z,17.30
2018-06-25T22:44:42.618Z,17.00
2018-06-25T22:49:37.293Z,16.90
2018-06-25T22:54:31.865Z,17.00
2018-06-25T22:59:26.410Z,17.00
2018-06-25T23:04:20.978Z,16.80
2018-06-25T23:09:15.536Z,16.70
2018-06-25T23:14:10.062Z,16.70
2018-06-25T23:19:04.583Z,16.60
2018-06-25T23:23:59.122Z,16.50
2018-06-25T23:28:53.710Z,16.40
2018-06-25T23:33:48.223Z,16.60
2018-06-25T23:38:42.751Z,16.80
2018-06-25T23:43:37.348Z,16.80
2018-06-25T23:48:31.894Z,16.60
2018-06-25T23:53:26.486Z,16.50
2018-06-25T23:58:21.361Z,16.30
